sensor_id;sensor_type;location;lat;lon;timestamp;P1;durP1;ratioP1;P2;durP2;ratioP2
2838;SDS011;1427;48.510;9.060;2024-02-04T00:01:00;45.27;;;1.50;;
2838;SDS011;1427;48.510;9.060;2024-02-04T00:03:28;45.10;;;1.30;;
2838;SDS011;1427;48.510;9.060;2024-02-04T00:05:57;45.43;;;1.97;;
2838;SDS011;1427;48.510;9.060;2024-02-04T00:08:25;44.93;;;1.80;;
2838;SDS011;1427;48.510;9.060;2024-02-04T00:10:54;45.80;;;1.60;;
2838;SDS011;1427;48.510;9.060;2024-02-04T00:13:22;45.47;;;1.90;;
2838;SDS011;1427;48.510;9.060;2024-02-04T00:15:50;46.60;;;1.70;;
2838;SDS011;1427;48.510;9.060;2024-02-04T00:18:20;44.67;;;1.50;;
2838;SDS011;1427;48.510;9.060;2024-02-04T00:20:49;45.07;;;1.87;;
2838;SDS011;1427;48.510;9.060;2024-02-04T00:23:17;45.10;;;1.90;;
2838;SDS011;1427;48.510;9.060;2024-02-04T00:25:45;44.20;;;1.30;;
2838;SDS011;1427;48.510;9.060;2024-02-04T00:28:14;45.10;;;2.13;;
2838;SDS011;1427;48.510;9.060;2024-02-04T00:30:42;45.10;;;1.70;;
2838;SDS011;1427;48.510;9.060;2024-02-04T00:33:11;44.73;;;1.40;;
2838;SDS011;1427;48.510;9.060;2024-02-04T00:35:39;44.90;;;1.50;;
2838;SDS011;1427;48.510;9.060;2024-02-04T00:38:07;45.80;;;2.10;;
2838;SDS011;1427;48.510;9.060;2024-02-04T00:40:36;44.40;;;1.50;;
2838;SDS011;1427;48.510;9.060;2024-02-04T00:43:04;44.93;;;1.73;;
2838;SDS011;1427;48.510;9.060;2024-02-04T00:45:34;44.67;;;1.30;;
2838;SDS011;1427;48.510;9.060;2024-02-04T00:48:02;45.10;;;1.80;;
2838;SDS011;1427;48.510;9.060;2024-02-04T00:50:30;45.00;;;1.67;;
2838;SDS011;1427;48.510;9.060;2024-02-04T00:52:58;44.97;;;1.90;;
2838;SDS011;1427;48.510;9.060;2024-02-04T00:55:26;44.80;;;1.70;;
2838;SDS011;1427;48.510;9.060;2024-02-04T00:57:54;45.30;;;1.97;;
2838;SDS011;1427;48.510;9.060;2024-02-04T01:00:25;45.23;;;1.67;;
2838;SDS011;1427;48.510;9.060;2024-02-04T01:02:54;44.50;;;1.40;;
2838;SDS011;1427;48.510;9.060;2024-02-04T01:05:22;44.83;;;1.50;;
2838;SDS011;1427;48.510;9.060;2024-02-04T01:07:51;45.13;;;1.53;;
2838;SDS011;1427;48.510;9.060;2024-02-04T01:10:19;45.07;;;1.90;;
2838;SDS011;1427;48.510;9.060;2024-02-04T01:12:47;44.90;;;2.00;;
2838;SDS011;1427;48.510;9.060;2024-02-04T01:15:15;44.87;;;1.53;;
2838;SDS011;1427;48.510;9.060;2024-02-04T01:17:43;45.10;;;1.87;;
2838;SDS011;1427;48.510;9.060;2024-02-04T01:20:12;44.87;;;1.67;;
2838;SDS011;1427;48.510;9.060;2024-02-04T01:22:40;45.20;;;1.70;;
2838;SDS011;1427;48.510;9.060;2024-02-04T01:25:08;44.80;;;1.43;;
2838;SDS011;1427;48.510;9.060;2024-02-04T01:27:37;44.20;;;1.67;;
2838;SDS011;1427;48.510;9.060;2024-02-04T01:30:05;45.03;;;1.40;;
2838;SDS011;1427;48.510;9.060;2024-02-04T01:32:34;45.63;;;2.20;;
2838;SDS011;1427;48.510;9.060;2024-02-04T01:35:02;45.13;;;1.50;;
2838;SDS011;1427;48.510;9.060;2024-02-04T01:37:32;45.37;;;1.90;;
2838;SDS011;1427;48.510;9.060;2024-02-04T01:40:00;44.87;;;1.50;;
2838;SDS011;1427;48.510;9.060;2024-02-04T01:42:28;46.00;;;1.63;;
2838;SDS011;1427;48.510;9.060;2024-02-04T01:44:56;45.00;;;1.47;;
2838;SDS011;1427;48.510;9.060;2024-02-04T01:47:24;45.10;;;1.70;;
2838;SDS011;1427;48.510;9.060;2024-02-04T01:49:51;44.93;;;1.50;;
2838;SDS011;1427;48.510;9.060;2024-02-04T01:52:20;44.90;;;2.10;;
2838;SDS011;1427;48.510;9.060;2024-02-04T01:54:49;44.80;;;1.50;;
2838;SDS011;1427;48.510;9.060;2024-02-04T01:57:18;44.80;;;1.50;;
2838;SDS011;1427;48.510;9.060;2024-02-04T01:59:47;44.70;;;1.40;;
2838;SDS011;1427;48.510;9.060;2024-02-04T02:02:18;45.00;;;1.60;;
2838;SDS011;1427;48.510;9.060;2024-02-04T02:04:46;49.50;;;1.83;;
2838;SDS011;1427;48.510;9.060;2024-02-04T02:07:14;45.57;;;1.90;;
2838;SDS011;1427;48.510;9.060;2024-02-04T02:09:43;44.50;;;1.47;;
2838;SDS011;1427;48.510;9.060;2024-02-04T02:12:13;45.00;;;1.60;;
2838;SDS011;1427;48.510;9.060;2024-02-04T02:14:46;45.10;;;1.40;;
2838;SDS011;1427;48.510;9.060;2024-02-04T02:17:30;47.67;;;2.33;;
2838;SDS011;1427;48.510;9.060;2024-02-04T02:20:06;45.80;;;1.60;;
2838;SDS011;1427;48.510;9.060;2024-02-04T02:22:45;45.00;;;2.10;;
2838;SDS011;1427;48.510;9.060;2024-02-04T02:25:17;44.40;;;1.40;;
2838;SDS011;1427;48.510;9.060;2024-02-04T02:27:49;45.37;;;2.13;;
2838;SDS011;1427;48.510;9.060;2024-02-04T02:30:17;44.70;;;1.60;;
2838;SDS011;1427;48.510;9.060;2024-02-04T02:32:46;45.03;;;1.40;;
2838;SDS011;1427;48.510;9.060;2024-02-04T02:35:17;45.43;;;1.97;;
2838;SDS011;1427;48.510;9.060;2024-02-04T02:37:46;44.80;;;1.47;;
2838;SDS011;1427;48.510;9.060;2024-02-04T02:40:23;45.70;;;2.00;;
2838;SDS011;1427;48.510;9.060;2024-02-04T02:42:56;44.83;;;1.50;;
2838;SDS011;1427;48.510;9.060;2024-02-04T02:45:28;45.30;;;1.50;;
2838;SDS011;1427;48.510;9.060;2024-02-04T02:47:58;46.63;;;1.90;;
2838;SDS011;1427;48.510;9.060;2024-02-04T02:50:27;45.03;;;2.03;;
2838;SDS011;1427;48.510;9.060;2024-02-04T02:52:56;45.17;;;1.60;;
2838;SDS011;1427;48.510;9.060;2024-02-04T02:55:25;44.90;;;1.80;;
2838;SDS011;1427;48.510;9.060;2024-02-04T02:57:53;45.23;;;1.67;;
2838;SDS011;1427;48.510;9.060;2024-02-04T03:00:21;44.77;;;1.90;;
2838;SDS011;1427;48.510;9.060;2024-02-04T03:02:50;45.37;;;2.33;;
2838;SDS011;1427;48.510;9.060;2024-02-04T03:05:18;44.87;;;1.30;;
2838;SDS011;1427;48.510;9.060;2024-02-04T03:07:46;44.80;;;1.70;;
2838;SDS011;1427;48.510;9.060;2024-02-04T03:10:14;45.77;;;1.70;;
2838;SDS011;1427;48.510;9.060;2024-02-04T03:12:43;45.23;;;1.53;;
2838;SDS011;1427;48.510;9.060;2024-02-04T03:15:12;44.60;;;1.27;;
2838;SDS011;1427;48.510;9.060;2024-02-04T03:17:40;44.83;;;1.53;;
2838;SDS011;1427;48.510;9.060;2024-02-04T03:20:10;44.70;;;1.20;;
2838;SDS011;1427;48.510;9.060;2024-02-04T03:22:38;44.73;;;1.50;;
2838;SDS011;1427;48.510;9.060;2024-02-04T03:25:06;44.40;;;1.40;;
2838;SDS011;1427;48.510;9.060;2024-02-04T03:27:35;44.27;;;1.83;;
2838;SDS011;1427;48.510;9.060;2024-02-04T03:30:05;44.47;;;1.37;;
2838;SDS011;1427;48.510;9.060;2024-02-04T03:32:34;45.90;;;2.67;;
2838;SDS011;1427;48.510;9.060;2024-02-04T03:35:02;45.53;;;2.03;;
2838;SDS011;1427;48.510;9.060;2024-02-04T03:37:31;45.60;;;1.50;;
2838;SDS011;1427;48.510;9.060;2024-02-04T03:39:59;44.77;;;1.50;;
2838;SDS011;1427;48.510;9.060;2024-02-04T03:42:27;45.47;;;2.27;;
2838;SDS011;1427;48.510;9.060;2024-02-04T03:44:56;45.20;;;1.40;;
2838;SDS011;1427;48.510;9.060;2024-02-04T03:47:25;45.23;;;1.93;;
2838;SDS011;1427;48.510;9.060;2024-02-04T03:49:53;46.00;;;1.77;;
2838;SDS011;1427;48.510;9.060;2024-02-04T03:52:21;45.77;;;2.50;;
2838;SDS011;1427;48.510;9.060;2024-02-04T03:54:49;44.97;;;1.40;;
2838;SDS011;1427;48.510;9.060;2024-02-04T03:57:17;45.27;;;1.87;;
2838;SDS011;1427;48.510;9.060;2024-02-04T03:59:45;45.30;;;1.43;;
2838;SDS011;1427;48.510;9.060;2024-02-04T04:02:14;45.40;;;1.67;;
2838;SDS011;1427;48.510;9.060;2024-02-04T04:04:43;45.07;;;1.77;;
2838;SDS011;1427;48.510;9.060;2024-02-04T04:07:14;44.87;;;1.73;;
2838;SDS011;1427;48.510;9.060;2024-02-04T04:09:42;45.33;;;1.63;;
2838;SDS011;1427;48.510;9.060;2024-02-04T04:12:10;44.70;;;1.57;;
2838;SDS011;1427;48.510;9.060;2024-02-04T04:14:38;44.40;;;1.20;;
2838;SDS011;1427;48.510;9.060;2024-02-04T04:17:07;45.57;;;1.93;;
2838;SDS011;1427;48.510;9.060;2024-02-04T04:19:35;44.87;;;1.50;;
2838;SDS011;1427;48.510;9.060;2024-02-04T04:22:04;45.20;;;1.47;;
2838;SDS011;1427;48.510;9.060;2024-02-04T04:24:33;45.53;;;1.67;;
2838;SDS011;1427;48.510;9.060;2024-02-04T04:27:01;45.20;;;1.53;;
2838;SDS011;1427;48.510;9.060;2024-02-04T04:29:29;45.27;;;1.53;;
2838;SDS011;1427;48.510;9.060;2024-02-04T04:31:57;45.90;;;2.17;;
2838;SDS011;1427;48.510;9.060;2024-02-04T04:34:25;45.43;;;1.73;;
2838;SDS011;1427;48.510;9.060;2024-02-04T04:36:53;47.60;;;1.60;;
2838;SDS011;1427;48.510;9.060;2024-02-04T04:39:23;45.30;;;1.83;;
2838;SDS011;1427;48.510;9.060;2024-02-04T04:41:51;45.70;;;1.83;;
2838;SDS011;1427;48.510;9.060;2024-02-04T04:44:19;45.97;;;1.60;;
2838;SDS011;1427;48.510;9.060;2024-02-04T04:46:47;45.67;;;1.70;;
2838;SDS011;1427;48.510;9.060;2024-02-04T04:49:15;44.90;;;1.40;;
2838;SDS011;1427;48.510;9.060;2024-02-04T04:51:44;45.50;;;1.33;;
2838;SDS011;1427;48.510;9.060;2024-02-04T04:54:13;45.70;;;2.07;;
2838;SDS011;1427;48.510;9.060;2024-02-04T04:56:42;44.80;;;1.37;;
2838;SDS011;1427;48.510;9.060;2024-02-04T04:59:10;45.33;;;1.57;;
2838;SDS011;1427;48.510;9.060;2024-02-04T05:01:44;45.10;;;1.60;;
2838;SDS011;1427;48.510;9.060;2024-02-04T05:04:13;44.90;;;1.40;;
2838;SDS011;1427;48.510;9.060;2024-02-04T05:06:42;44.87;;;1.40;;
2838;SDS011;1427;48.510;9.060;2024-02-04T05:09:10;44.87;;;2.00;;
2838;SDS011;1427;48.510;9.060;2024-02-04T05:11:38;44.40;;;1.50;;
2838;SDS011;1427;48.510;9.060;2024-02-04T05:14:08;45.20;;;1.43;;
2838;SDS011;1427;48.510;9.060;2024-02-04T05:16:36;45.20;;;1.50;;
2838;SDS011;1427;48.510;9.060;2024-02-04T05:19:04;45.70;;;1.87;;
2838;SDS011;1427;48.510;9.060;2024-02-04T05:21:32;44.97;;;1.30;;
2838;SDS011;1427;48.510;9.060;2024-02-04T05:24:00;44.80;;;1.40;;
2838;SDS011;1427;48.510;9.060;2024-02-04T05:26:28;47.07;;;1.97;;
2838;SDS011;1427;48.510;9.060;2024-02-04T05:28:56;45.10;;;1.40;;
2838;SDS011;1427;48.510;9.060;2024-02-04T05:31:29;45.53;;;2.00;;
2838;SDS011;1427;48.510;9.060;2024-02-04T05:33:57;44.90;;;1.97;;
2838;SDS011;1427;48.510;9.060;2024-02-04T05:36:25;45.50;;;2.00;;
2838;SDS011;1427;48.510;9.060;2024-02-04T05:38:53;44.40;;;1.40;;
2838;SDS011;1427;48.510;9.060;2024-02-04T05:41:21;45.70;;;2.00;;
2838;SDS011;1427;48.510;9.060;2024-02-04T05:43:49;45.07;;;1.77;;
2838;SDS011;1427;48.510;9.060;2024-02-04T05:46:17;45.07;;;2.00;;
2838;SDS011;1427;48.510;9.060;2024-02-04T05:48:49;46.47;;;1.70;;
2838;SDS011;1427;48.510;9.060;2024-02-04T05:51:17;46.10;;;2.20;;
2838;SDS011;1427;48.510;9.060;2024-02-04T05:53:45;45.27;;;1.40;;
2838;SDS011;1427;48.510;9.060;2024-02-04T05:56:13;44.30;;;1.40;;
2838;SDS011;1427;48.510;9.060;2024-02-04T05:58:42;45.30;;;2.00;;
2838;SDS011;1427;48.510;9.060;2024-02-04T06:01:10;44.37;;;1.53;;
2838;SDS011;1427;48.510;9.060;2024-02-04T06:03:38;44.87;;;1.50;;
2838;SDS011;1427;48.510;9.060;2024-02-04T06:06:08;44.60;;;1.60;;
2838;SDS011;1427;48.510;9.060;2024-02-04T06:08:36;45.50;;;1.60;;
2838;SDS011;1427;48.510;9.060;2024-02-04T06:11:04;45.27;;;1.80;;
2838;SDS011;1427;48.510;9.060;2024-02-04T06:13:32;44.57;;;1.67;;
2838;SDS011;1427;48.510;9.060;2024-02-04T06:16:00;44.87;;;1.53;;
2838;SDS011;1427;48.510;9.060;2024-02-04T06:18:28;44.97;;;1.97;;
2838;SDS011;1427;48.510;9.060;2024-02-04T06:20:56;44.90;;;1.67;;
2838;SDS011;1427;48.510;9.060;2024-02-04T06:23:26;45.07;;;1.70;;
2838;SDS011;1427;48.510;9.060;2024-02-04T06:25:54;46.10;;;2.07;;
2838;SDS011;1427;48.510;9.060;2024-02-04T06:28:22;45.07;;;1.23;;
2838;SDS011;1427;48.510;9.060;2024-02-04T06:30:50;45.00;;;1.50;;
2838;SDS011;1427;48.510;9.060;2024-02-04T06:33:19;45.53;;;2.10;;
2838;SDS011;1427;48.510;9.060;2024-02-04T06:35:48;45.10;;;1.57;;
2838;SDS011;1427;48.510;9.060;2024-02-04T06:38:16;44.60;;;1.40;;
2838;SDS011;1427;48.510;9.060;2024-02-04T06:40:46;45.20;;;1.90;;
2838;SDS011;1427;48.510;9.060;2024-02-04T06:43:14;45.20;;;1.60;;
2838;SDS011;1427;48.510;9.060;2024-02-04T06:45:42;45.07;;;1.30;;
2838;SDS011;1427;48.510;9.060;2024-02-04T06:48:10;45.90;;;2.30;;
2838;SDS011;1427;48.510;9.060;2024-02-04T06:50:39;47.33;;;1.63;;
2838;SDS011;1427;48.510;9.060;2024-02-04T06:53:10;44.97;;;1.50;;
2838;SDS011;1427;48.510;9.060;2024-02-04T06:55:38;44.57;;;1.60;;
2838;SDS011;1427;48.510;9.060;2024-02-04T06:58:07;45.40;;;1.83;;
2838;SDS011;1427;48.510;9.060;2024-02-04T07:00:35;47.17;;;5.20;;
2838;SDS011;1427;48.510;9.060;2024-02-04T07:03:05;46.00;;;3.23;;
2838;SDS011;1427;48.510;9.060;2024-02-04T07:05:33;45.90;;;2.90;;
2838;SDS011;1427;48.510;9.060;2024-02-04T07:08:01;46.17;;;3.07;;
2838;SDS011;1427;48.510;9.060;2024-02-04T07:10:29;46.00;;;3.27;;
2838;SDS011;1427;48.510;9.060;2024-02-04T07:12:57;46.50;;;4.07;;
2838;SDS011;1427;48.510;9.060;2024-02-04T07:15:26;49.30;;;3.30;;
2838;SDS011;1427;48.510;9.060;2024-02-04T07:17:55;45.87;;;3.00;;
2838;SDS011;1427;48.510;9.060;2024-02-04T07:20:23;46.10;;;2.93;;
2838;SDS011;1427;48.510;9.060;2024-02-04T07:22:51;45.50;;;3.20;;
2838;SDS011;1427;48.510;9.060;2024-02-04T07:25:19;46.20;;;3.23;;
2838;SDS011;1427;48.510;9.060;2024-02-04T07:27:48;46.30;;;3.00;;
2838;SDS011;1427;48.510;9.060;2024-02-04T07:30:17;44.90;;;2.63;;
2838;SDS011;1427;48.510;9.060;2024-02-04T07:32:46;47.00;;;3.03;;
2838;SDS011;1427;48.510;9.060;2024-02-04T07:35:14;45.73;;;3.23;;
2838;SDS011;1427;48.510;9.060;2024-02-04T07:37:43;49.87;;;3.57;;
2838;SDS011;1427;48.510;9.060;2024-02-04T07:40:11;45.37;;;3.00;;
2838;SDS011;1427;48.510;9.060;2024-02-04T07:42:39;46.07;;;3.03;;
2838;SDS011;1427;48.510;9.060;2024-02-04T07:45:08;45.77;;;3.10;;
2838;SDS011;1427;48.510;9.060;2024-02-04T07:47:36;45.27;;;3.17;;
2838;SDS011;1427;48.510;9.060;2024-02-04T07:50:07;46.10;;;3.57;;
2838;SDS011;1427;48.510;9.060;2024-02-04T07:52:36;45.70;;;3.00;;
2838;SDS011;1427;48.510;9.060;2024-02-04T07:55:07;46.80;;;3.17;;
2838;SDS011;1427;48.510;9.060;2024-02-04T07:57:36;46.20;;;3.37;;
2838;SDS011;1427;48.510;9.060;2024-02-04T08:00:05;45.50;;;3.00;;
2838;SDS011;1427;48.510;9.060;2024-02-04T08:02:36;45.97;;;2.80;;
2838;SDS011;1427;48.510;9.060;2024-02-04T08:05:07;45.40;;;2.77;;
2838;SDS011;1427;48.510;9.060;2024-02-04T08:07:37;44.90;;;2.53;;
2838;SDS011;1427;48.510;9.060;2024-02-04T08:10:07;45.77;;;3.17;;
2838;SDS011;1427;48.510;9.060;2024-02-04T08:12:36;45.57;;;3.73;;
2838;SDS011;1427;48.510;9.060;2024-02-04T08:15:04;45.50;;;2.67;;
2838;SDS011;1427;48.510;9.060;2024-02-04T08:17:33;46.10;;;3.43;;
2838;SDS011;1427;48.510;9.060;2024-02-04T08:20:01;46.07;;;2.87;;
2838;SDS011;1427;48.510;9.060;2024-02-04T08:22:32;46.10;;;3.33;;
2838;SDS011;1427;48.510;9.060;2024-02-04T08:25:00;45.90;;;3.60;;
2838;SDS011;1427;48.510;9.060;2024-02-04T08:27:29;46.77;;;3.67;;
2838;SDS011;1427;48.510;9.060;2024-02-04T08:29:57;46.20;;;3.27;;
2838;SDS011;1427;48.510;9.060;2024-02-04T08:32:25;45.00;;;2.20;;
2838;SDS011;1427;48.510;9.060;2024-02-04T08:34:53;47.20;;;4.10;;
2838;SDS011;1427;48.510;9.060;2024-02-04T08:37:21;46.40;;;2.90;;
2838;SDS011;1427;48.510;9.060;2024-02-04T08:39:54;45.27;;;2.30;;
2838;SDS011;1427;48.510;9.060;2024-02-04T08:42:23;46.00;;;2.87;;
2838;SDS011;1427;48.510;9.060;2024-02-04T08:44:51;46.20;;;2.70;;
2838;SDS011;1427;48.510;9.060;2024-02-04T08:47:19;45.53;;;2.90;;
2838;SDS011;1427;48.510;9.060;2024-02-04T08:49:47;45.60;;;3.07;;
2838;SDS011;1427;48.510;9.060;2024-02-04T08:52:15;45.77;;;3.43;;
2838;SDS011;1427;48.510;9.060;2024-02-04T08:54:44;46.47;;;3.40;;
2838;SDS011;1427;48.510;9.060;2024-02-04T08:57:13;45.70;;;3.10;;
2838;SDS011;1427;48.510;9.060;2024-02-04T08:59:43;45.17;;;2.53;;
2838;SDS011;1427;48.510;9.060;2024-02-04T09:02:11;45.87;;;3.63;;
2838;SDS011;1427;48.510;9.060;2024-02-04T09:04:39;45.33;;;3.00;;
2838;SDS011;1427;48.510;9.060;2024-02-04T09:07:08;46.17;;;3.70;;
2838;SDS011;1427;48.510;9.060;2024-02-04T09:09:36;46.03;;;3.17;;
2838;SDS011;1427;48.510;9.060;2024-02-04T09:12:05;45.83;;;3.27;;
2838;SDS011;1427;48.510;9.060;2024-02-04T09:14:34;45.87;;;3.20;;
2838;SDS011;1427;48.510;9.060;2024-02-04T09:17:02;45.57;;;3.10;;
2838;SDS011;1427;48.510;9.060;2024-02-04T09:19:31;45.93;;;3.13;;
2838;SDS011;1427;48.510;9.060;2024-02-04T09:22:01;45.83;;;3.00;;
2838;SDS011;1427;48.510;9.060;2024-02-04T09:24:29;45.60;;;3.00;;
2838;SDS011;1427;48.510;9.060;2024-02-04T09:26:57;48.47;;;3.60;;
2838;SDS011;1427;48.510;9.060;2024-02-04T09:29:25;45.97;;;2.87;;
2838;SDS011;1427;48.510;9.060;2024-02-04T09:31:55;51.73;;;3.90;;
2838;SDS011;1427;48.510;9.060;2024-02-04T09:34:23;46.00;;;3.50;;
2838;SDS011;1427;48.510;9.060;2024-02-04T09:36:52;45.70;;;2.87;;
2838;SDS011;1427;48.510;9.060;2024-02-04T09:39:20;45.67;;;2.97;;
2838;SDS011;1427;48.510;9.060;2024-02-04T09:41:48;46.13;;;3.03;;
2838;SDS011;1427;48.510;9.060;2024-02-04T09:44:16;45.80;;;3.17;;
2838;SDS011;1427;48.510;9.060;2024-02-04T09:46:45;45.83;;;3.30;;
2838;SDS011;1427;48.510;9.060;2024-02-04T09:49:15;47.63;;;3.07;;
2838;SDS011;1427;48.510;9.060;2024-02-04T09:51:43;46.10;;;3.53;;
2838;SDS011;1427;48.510;9.060;2024-02-04T09:54:12;45.97;;;3.13;;
2838;SDS011;1427;48.510;9.060;2024-02-04T09:56:42;46.63;;;3.97;;
2838;SDS011;1427;48.510;9.060;2024-02-04T09:59:11;45.83;;;3.57;;
2838;SDS011;1427;48.510;9.060;2024-02-04T10:01:39;46.07;;;3.30;;
2838;SDS011;1427;48.510;9.060;2024-02-04T10:04:09;46.87;;;3.47;;
2838;SDS011;1427;48.510;9.060;2024-02-04T10:06:39;45.53;;;2.63;;
2838;SDS011;1427;48.510;9.060;2024-02-04T10:09:07;47.83;;;3.93;;
2838;SDS011;1427;48.510;9.060;2024-02-04T10:11:35;45.80;;;2.83;;
2838;SDS011;1427;48.510;9.060;2024-02-04T10:14:03;45.67;;;2.80;;
2838;SDS011;1427;48.510;9.060;2024-02-04T10:16:34;45.90;;;3.17;;
2838;SDS011;1427;48.510;9.060;2024-02-04T10:19:03;45.70;;;2.80;;
2838;SDS011;1427;48.510;9.060;2024-02-04T10:21:31;48.57;;;2.80;;
2838;SDS011;1427;48.510;9.060;2024-02-04T10:24:01;47.07;;;3.73;;
2838;SDS011;1427;48.510;9.060;2024-02-04T10:26:29;46.60;;;2.97;;
2838;SDS011;1427;48.510;9.060;2024-02-04T10:29:00;45.90;;;3.10;;
2838;SDS011;1427;48.510;9.060;2024-02-04T10:31:29;45.90;;;2.97;;
2838;SDS011;1427;48.510;9.060;2024-02-04T10:33:57;48.13;;;3.80;;
2838;SDS011;1427;48.510;9.060;2024-02-04T10:36:27;45.97;;;3.07;;
2838;SDS011;1427;48.510;9.060;2024-02-04T10:38:58;46.30;;;3.13;;
2838;SDS011;1427;48.510;9.060;2024-02-04T10:41:27;46.07;;;3.10;;
2838;SDS011;1427;48.510;9.060;2024-02-04T10:43:58;46.30;;;3.90;;
2838;SDS011;1427;48.510;9.060;2024-02-04T10:46:30;45.60;;;2.40;;
2838;SDS011;1427;48.510;9.060;2024-02-04T10:49:02;46.40;;;3.60;;
2838;SDS011;1427;48.510;9.060;2024-02-04T10:51:33;46.00;;;2.77;;
2838;SDS011;1427;48.510;9.060;2024-02-04T10:54:04;46.30;;;3.30;;
2838;SDS011;1427;48.510;9.060;2024-02-04T10:56:36;46.50;;;3.03;;
2838;SDS011;1427;48.510;9.060;2024-02-04T10:59:05;46.27;;;3.20;;
2838;SDS011;1427;48.510;9.060;2024-02-04T11:01:34;46.70;;;2.90;;
2838;SDS011;1427;48.510;9.060;2024-02-04T11:04:03;46.13;;;2.93;;
2838;SDS011;1427;48.510;9.060;2024-02-04T11:06:34;46.17;;;2.77;;
2838;SDS011;1427;48.510;9.060;2024-02-04T11:09:04;47.00;;;3.60;;
2838;SDS011;1427;48.510;9.060;2024-02-04T11:11:32;46.87;;;3.63;;
2838;SDS011;1427;48.510;9.060;2024-02-04T11:14:03;46.77;;;3.20;;
2838;SDS011;1427;48.510;9.060;2024-02-04T11:16:40;45.93;;;2.87;;
2838;SDS011;1427;48.510;9.060;2024-02-04T11:19:28;48.27;;;4.40;;
2838;SDS011;1427;48.510;9.060;2024-02-04T11:22:10;46.30;;;2.97;;
2838;SDS011;1427;48.510;9.060;2024-02-04T11:25:17;46.63;;;3.20;;
2838;SDS011;1427;48.510;9.060;2024-02-04T11:28:00;46.70;;;3.07;;
2838;SDS011;1427;48.510;9.060;2024-02-04T11:30:33;49.10;;;3.70;;
2838;SDS011;1427;48.510;9.060;2024-02-04T11:33:02;47.57;;;3.60;;
2838;SDS011;1427;48.510;9.060;2024-02-04T11:35:32;47.53;;;3.53;;
2838;SDS011;1427;48.510;9.060;2024-02-04T11:38:02;47.07;;;3.70;;
2838;SDS011;1427;48.510;9.060;2024-02-04T11:40:31;47.20;;;3.50;;
2838;SDS011;1427;48.510;9.060;2024-02-04T11:43:05;47.53;;;3.57;;
2838;SDS011;1427;48.510;9.060;2024-02-04T11:45:38;46.47;;;2.93;;
2838;SDS011;1427;48.510;9.060;2024-02-04T11:48:07;46.87;;;3.40;;
2838;SDS011;1427;48.510;9.060;2024-02-04T11:50:36;46.70;;;3.37;;
2838;SDS011;1427;48.510;9.060;2024-02-04T11:53:06;47.97;;;3.50;;
2838;SDS011;1427;48.510;9.060;2024-02-04T11:55:36;47.77;;;4.63;;
2838;SDS011;1427;48.510;9.060;2024-02-04T11:58:10;47.37;;;3.60;;
2838;SDS011;1427;48.510;9.060;2024-02-04T12:00:43;51.47;;;4.80;;
2838;SDS011;1427;48.510;9.060;2024-02-04T12:03:29;47.40;;;4.53;;
2838;SDS011;1427;48.510;9.060;2024-02-04T12:05:58;46.50;;;3.37;;
2838;SDS011;1427;48.510;9.060;2024-02-04T12:08:28;50.10;;;4.33;;
2838;SDS011;1427;48.510;9.060;2024-02-04T12:10:57;46.30;;;2.80;;
2838;SDS011;1427;48.510;9.060;2024-02-04T12:13:25;46.47;;;3.20;;
2838;SDS011;1427;48.510;9.060;2024-02-04T12:15:57;47.00;;;3.40;;
2838;SDS011;1427;48.510;9.060;2024-02-04T12:18:25;46.90;;;3.70;;
2838;SDS011;1427;48.510;9.060;2024-02-04T12:20:53;46.90;;;3.67;;
2838;SDS011;1427;48.510;9.060;2024-02-04T12:23:21;47.40;;;3.97;;
2838;SDS011;1427;48.510;9.060;2024-02-04T12:25:50;47.03;;;4.43;;
2838;SDS011;1427;48.510;9.060;2024-02-04T12:28:18;46.40;;;3.07;;
2838;SDS011;1427;48.510;9.060;2024-02-04T12:30:52;50.80;;;3.30;;
2838;SDS011;1427;48.510;9.060;2024-02-04T12:33:22;46.50;;;3.50;;
2838;SDS011;1427;48.510;9.060;2024-02-04T12:35:51;48.00;;;3.57;;
2838;SDS011;1427;48.510;9.060;2024-02-04T12:38:22;46.40;;;3.00;;
2838;SDS011;1427;48.510;9.060;2024-02-04T12:40:50;47.23;;;4.17;;
2838;SDS011;1427;48.510;9.060;2024-02-04T12:43:18;47.10;;;3.33;;
2838;SDS011;1427;48.510;9.060;2024-02-04T12:45:47;46.93;;;3.97;;
2838;SDS011;1427;48.510;9.060;2024-02-04T12:48:15;46.70;;;3.90;;
2838;SDS011;1427;48.510;9.060;2024-02-04T12:50:46;46.87;;;3.20;;
2838;SDS011;1427;48.510;9.060;2024-02-04T12:53:14;46.80;;;3.70;;
2838;SDS011;1427;48.510;9.060;2024-02-04T12:55:42;47.90;;;3.37;;
2838;SDS011;1427;48.510;9.060;2024-02-04T12:58:11;46.67;;;3.60;;
2838;SDS011;1427;48.510;9.060;2024-02-04T13:00:41;47.70;;;3.87;;
2838;SDS011;1427;48.510;9.060;2024-02-04T13:03:09;46.70;;;3.40;;
2838;SDS011;1427;48.510;9.060;2024-02-04T13:05:37;47.00;;;4.03;;
2838;SDS011;1427;48.510;9.060;2024-02-04T13:08:07;46.67;;;3.77;;
2838;SDS011;1427;48.510;9.060;2024-02-04T13:10:35;46.70;;;3.67;;
2838;SDS011;1427;48.510;9.060;2024-02-04T13:13:04;47.10;;;4.20;;
2838;SDS011;1427;48.510;9.060;2024-02-04T13:15:36;46.60;;;3.37;;
2838;SDS011;1427;48.510;9.060;2024-02-04T13:18:07;53.30;;;7.80;;
2838;SDS011;1427;48.510;9.060;2024-02-04T13:20:37;47.07;;;4.00;;
2838;SDS011;1427;48.510;9.060;2024-02-04T13:23:08;46.60;;;3.10;;
2838;SDS011;1427;48.510;9.060;2024-02-04T13:25:36;45.70;;;2.30;;
2838;SDS011;1427;48.510;9.060;2024-02-04T13:28:05;47.77;;;4.03;;
2838;SDS011;1427;48.510;9.060;2024-02-04T13:30:33;47.07;;;3.90;;
2838;SDS011;1427;48.510;9.060;2024-02-04T13:33:01;48.13;;;4.53;;
2838;SDS011;1427;48.510;9.060;2024-02-04T13:35:30;48.40;;;4.03;;
2838;SDS011;1427;48.510;9.060;2024-02-04T13:37:58;48.23;;;3.57;;
2838;SDS011;1427;48.510;9.060;2024-02-04T13:40:27;47.07;;;3.63;;
2838;SDS011;1427;48.510;9.060;2024-02-04T13:42:55;47.60;;;4.13;;
2838;SDS011;1427;48.510;9.060;2024-02-04T13:45:24;55.47;;;3.30;;
2838;SDS011;1427;48.510;9.060;2024-02-04T13:47:52;46.40;;;2.90;;
2838;SDS011;1427;48.510;9.060;2024-02-04T13:50:20;46.33;;;3.07;;
2838;SDS011;1427;48.510;9.060;2024-02-04T13:52:48;48.13;;;3.37;;
2838;SDS011;1427;48.510;9.060;2024-02-04T13:55:17;46.97;;;3.13;;
2838;SDS011;1427;48.510;9.060;2024-02-04T13:57:46;48.13;;;3.33;;
2838;SDS011;1427;48.510;9.060;2024-02-04T14:00:15;46.20;;;3.37;;
2838;SDS011;1427;48.510;9.060;2024-02-04T14:02:43;47.10;;;3.03;;
2838;SDS011;1427;48.510;9.060;2024-02-04T14:05:11;46.23;;;3.27;;
2838;SDS011;1427;48.510;9.060;2024-02-04T14:07:40;46.57;;;3.47;;
2838;SDS011;1427;48.510;9.060;2024-02-04T14:10:08;47.07;;;4.20;;
2838;SDS011;1427;48.510;9.060;2024-02-04T14:12:38;46.53;;;3.23;;
2838;SDS011;1427;48.510;9.060;2024-02-04T14:15:09;46.70;;;3.40;;
2838;SDS011;1427;48.510;9.060;2024-02-04T14:17:37;46.83;;;3.60;;
2838;SDS011;1427;48.510;9.060;2024-02-04T14:20:06;46.47;;;3.87;;
2838;SDS011;1427;48.510;9.060;2024-02-04T14:22:35;47.73;;;4.07;;
2838;SDS011;1427;48.510;9.060;2024-02-04T14:25:03;48.17;;;4.50;;
2838;SDS011;1427;48.510;9.060;2024-02-04T14:27:32;46.27;;;2.97;;
2838;SDS011;1427;48.510;9.060;2024-02-04T14:30:00;46.77;;;3.50;;
2838;SDS011;1427;48.510;9.060;2024-02-04T14:32:30;47.80;;;4.70;;
2838;SDS011;1427;48.510;9.060;2024-02-04T14:34:58;46.50;;;3.13;;
2838;SDS011;1427;48.510;9.060;2024-02-04T14:37:27;46.47;;;3.27;;
2838;SDS011;1427;48.510;9.060;2024-02-04T14:39:55;46.67;;;3.67;;
2838;SDS011;1427;48.510;9.060;2024-02-04T14:42:23;45.80;;;2.73;;
2838;SDS011;1427;48.510;9.060;2024-02-04T14:44:53;46.60;;;3.43;;
2838;SDS011;1427;48.510;9.060;2024-02-04T14:47:21;47.17;;;4.23;;
2838;SDS011;1427;48.510;9.060;2024-02-04T14:49:50;45.40;;;2.47;;
2838;SDS011;1427;48.510;9.060;2024-02-04T14:52:18;46.30;;;3.30;;
2838;SDS011;1427;48.510;9.060;2024-02-04T14:54:46;46.50;;;3.43;;
2838;SDS011;1427;48.510;9.060;2024-02-04T14:57:14;46.60;;;3.50;;
2838;SDS011;1427;48.510;9.060;2024-02-04T14:59:43;47.13;;;4.23;;
2838;SDS011;1427;48.510;9.060;2024-02-04T15:02:10;46.40;;;3.27;;
2838;SDS011;1427;48.510;9.060;2024-02-04T15:04:39;46.47;;;3.40;;
2838;SDS011;1427;48.510;9.060;2024-02-04T15:07:08;46.57;;;3.27;;
2838;SDS011;1427;48.510;9.060;2024-02-04T15:09:36;46.57;;;3.50;;
2838;SDS011;1427;48.510;9.060;2024-02-04T15:12:05;46.37;;;3.40;;